Time;durP1;ratioP1;P1;durP2;ratioP2;P2;SDS_P1;SDS_P2;PMS_P1;PMS_P2;Temp;Humidity;BMP_temperature;BMP_pressure;BME280_temperature;BME280_humidity;BME280_pressure;Samples;Min_cycle;Max_cycle;Signal;HPM_P1;HPM_P2
2022/11/14 00:00:58;;;;;;;30.30;27.10;;;3.60;99.90;;;;;;5095508;28;20252;-79
2022/11/14 00:03:24;;;;;;;27.83;21.27;;;3.60;99.90;;;;;;5095440;28;20181;-78
2022/11/14 00:05:50;;;;;;;27.73;20.33;;;3.60;99.90;;;;;;5095427;28;20203;-79
2022/11/14 00:08:21;;;;;;;24.73;19.93;;;3.50;99.90;;;;;;5094741;28;20184;-79
2022/11/14 00:10:49;;;;;;;25.17;19.67;;;3.50;99.90;;;;;;5094818;28;20200;-78
2022/11/14 00:13:16;;;;;;;25.17;20.23;;;3.40;99.90;;;;;;5094607;28;20235;-79
2022/11/14 00:15:42;;;;;;;23.90;20.17;;;3.40;99.90;;;;;;5095949;28;20179;-78
2022/11/14 00:18:08;;;;;;;26.60;23.70;;;3.30;99.90;;;;;;5095397;28;20679;-79
2022/11/14 00:20:34;;;;;;;25.47;21.40;;;3.30;99.90;;;;;;5095016;28;20197;-79
2022/11/14 00:22:59;;;;;;;25.03;22.03;;;3.30;99.90;;;;;;5100064;28;20176;-78
2022/11/14 00:25:25;;;;;;;23.40;19.30;;;3.30;99.90;;;;;;5098460;28;20181;-79
2022/11/14 00:27:51;;;;;;;23.83;19.70;;;3.20;99.90;;;;;;5095267;28;20176;-78
2022/11/14 00:30:17;;;;;;;25.53;21.03;;;3.10;99.90;;;;;;5094360;28;20180;-79
2022/11/14 00:32:43;;;;;;;24.57;18.47;;;3.10;99.90;;;;;;5094278;28;20241;-78
2022/11/14 00:35:09;;;;;;;22.60;20.17;;;3.00;99.90;;;;;;5095488;28;20246;-79
2022/11/14 00:37:35;;;;;;;22.57;19.57;;;3.00;99.90;;;;;;5094637;28;20617;-77
2022/11/14 00:40:01;;;;;;;22.13;19.57;;;2.90;99.90;;;;;;5101941;28;20564;-77
2022/11/14 00:42:26;;;;;;;24.63;20.00;;;2.80;99.90;;;;;;5095360;28;20212;-78
2022/11/14 00:44:52;;;;;;;23.67;19.53;;;2.70;99.90;;;;;;5094421;28;20524;-78
2022/11/14 00:47:18;;;;;;;25.37;20.17;;;2.60;99.90;;;;;;5094544;28;20188;-77
2022/11/14 00:49:44;;;;;;;23.47;19.90;;;2.60;99.90;;;;;;5094979;28;20179;-79
2022/11/14 00:52:10;;;;;;;27.97;22.47;;;2.60;99.90;;;;;;5094376;28;20192;-77
2022/11/14 00:54:36;;;;;;;27.03;23.30;;;2.50;99.90;;;;;;5094560;28;20269;-78
2022/11/14 00:57:01;;;;;;;27.87;21.70;;;2.40;99.90;;;;;;5092860;28;20180;-78
2022/11/14 00:59:27;;;;;;;20.43;18.33;;;2.40;99.90;;;;;;5093546;28;20306;-78
2022/11/14 01:01:53;;;;;;;21.93;18.53;;;2.30;99.90;;;;;;5095230;28;20290;-78
2022/11/14 01:04:18;;;;;;;25.33;19.20;;;2.30;99.90;;;;;;5091352;28;20247;-79
2022/11/14 01:06:44;;;;;;;21.87;18.47;;;2.20;99.90;;;;;;5094228;28;20670;-77
2022/11/14 01:09:10;;;;;;;20.63;18.43;;;2.10;99.90;;;;;;5096178;28;20222;-77
2022/11/14 01:11:37;;;;;;;25.07;22.13;;;2.10;99.90;;;;;;5096250;28;20203;-77
2022/11/14 01:14:05;;;;;;;29.47;26.50;;;2.10;99.90;;;;;;5096337;28;20321;-79
2022/11/14 01:16:31;;;;;;;23.90;19.83;;;2.10;99.90;;;;;;5094221;28;20666;-79
2022/11/14 01:18:57;;;;;;;23.80;21.33;;;2.00;99.90;;;;;;5093200;28;20208;-79
2022/11/14 01:21:23;;;;;;;26.80;23.97;;;2.00;99.90;;;;;;5095515;28;20577;-78
2022/11/14 01:23:49;;;;;;;27.47;24.50;;;2.00;99.90;;;;;;5097722;28;20188;-77
2022/11/14 01:26:14;;;;;;;28.67;21.80;;;2.00;99.90;;;;;;5096731;28;20279;-77
2022/11/14 01:28:40;;;;;;;23.43;20.80;;;2.00;99.90;;;;;;5104052;28;20183;-79
2022/11/14 01:31:11;;;;;;;25.13;19.33;;;2.00;99.90;;;;;;5097394;28;20223;-77
2022/11/14 01:33:36;;;;;;;22.63;19.50;;;2.00;99.90;;;;;;5097519;28;20555;-79
2022/11/14 01:36:02;;;;;;;22.70;18.33;;;2.00;99.90;;;;;;5097279;28;20233;-80
2022/11/14 01:38:28;;;;;;;23.43;17.87;;;2.00;99.90;;;;;;5094967;28;20557;-80
2022/11/14 01:40:54;;;;;;;24.73;19.20;;;1.90;99.90;;;;;;5094095;28;20302;-79
2022/11/14 01:43:24;;;;;;;24.73;18.47;;;1.80;99.90;;;;;;5096004;28;20232;-79
2022/11/14 01:45:56;;;;;;;27.67;19.83;;;1.80;99.90;;;;;;5101838;28;20183;-79
2022/11/14 01:48:48;;;;;;;21.63;19.30;;;1.80;99.90;;;;;;5095058;28;20650;-79
2022/11/14 01:51:31;;;;;;;25.27;20.50;;;1.80;99.90;;;;;;5109185;28;20197;-77
2022/11/14 01:54:02;;;;;;;22.80;18.70;;;1.80;99.90;;;;;;5116090;28;20185;-77
2022/11/14 01:56:42;;;;;;;24.10;18.97;;;1.70;99.90;;;;;;5105119;28;20194;-79
2022/11/14 01:59:16;;;;;;;21.70;17.37;;;1.70;99.90;;;;;;5095953;28;20741;-79
2022/11/14 02:01:47;;;;;;;20.93;18.40;;;1.70;99.90;;;;;;5100746;28;20201;-77
2022/11/14 02:04:30;;;;;;;22.47;18.80;;;1.70;99.90;;;;;;5101811;28;20195;-79
2022/11/14 02:07:01;;;;;;;22.00;18.77;;;1.60;99.90;;;;;;5096696;28;20177;-79
2022/11/14 02:09:33;;;;;;;19.27;16.97;;;1.50;99.90;;;;;;5094481;28;20187;-79
2022/11/14 02:12:01;;;;;;;23.10;18.77;;;1.50;99.90;;;;;;5093375;28;20207;-79
2022/11/14 02:14:28;;;;;;;27.20;20.53;;;1.50;99.90;;;;;;5095298;28;20657;-79
2022/11/14 02:16:54;;;;;;;24.93;20.23;;;1.50;99.90;;;;;;5094775;28;20177;-79
2022/11/14 02:19:20;;;;;;;24.90;19.70;;;1.50;99.90;;;;;;5093676;28;20696;-79
2022/11/14 02:21:46;;;;;;;25.43;20.57;;;1.50;99.90;;;;;;5093194;28;20214;-79
2022/11/14 02:24:12;;;;;;;26.13;20.10;;;1.50;99.90;;;;;;5093343;28;20173;-80
2022/11/14 02:26:40;;;;;;;31.43;21.27;;;1.60;99.90;;;;;;5092968;28;20244;-79
2022/11/14 02:29:09;;;;;;;22.00;19.67;;;1.60;99.90;;;;;;5101453;28;20253;-80
2022/11/14 02:31:35;;;;;;;24.23;20.80;;;1.60;99.90;;;;;;5093810;28;20234;-79
2022/11/14 02:34:01;;;;;;;23.63;19.10;;;1.70;99.90;;;;;;5092981;28;20186;-79
2022/11/14 02:36:27;;;;;;;31.17;21.97;;;1.70;99.90;;;;;;5094442;28;20191;-80
2022/11/14 02:38:52;;;;;;;28.20;20.40;;;1.70;99.90;;;;;;5092846;28;20215;-79
2022/11/14 02:41:18;;;;;;;61.37;22.67;;;1.70;99.90;;;;;;5093156;28;20209;-79
2022/11/14 02:43:44;;;;;;;31.40;20.30;;;1.80;99.90;;;;;;5091812;28;20570;-79
2022/11/14 02:46:10;;;;;;;38.77;19.77;;;1.80;99.90;;;;;;5092234;28;20656;-79
2022/11/14 02:48:36;;;;;;;45.63;22.67;;;1.90;99.90;;;;;;5091565;28;20194;-79
2022/11/14 02:51:02;;;;;;;62.13;26.90;;;1.90;99.90;;;;;;5095438;28;20772;-79
2022/11/14 02:53:28;;;;;;;32.00;23.87;;;1.90;99.90;;;;;;5096708;28;20191;-79
2022/11/14 02:55:53;;;;;;;30.90;25.63;;;1.80;99.90;;;;;;5094017;28;20195;-79
2022/11/14 02:58:19;;;;;;;25.17;22.50;;;1.80;99.90;;;;;;5093429;28;20215;-78
2022/11/14 03:00:45;;;;;;;27.07;23.83;;;1.90;99.90;;;;;;5094944;28;20298;-79
2022/11/14 03:03:11;;;;;;;28.63;23.83;;;1.90;99.90;;;;;;5092794;28;20171;-80
2022/11/14 03:05:36;;;;;;;30.50;22.87;;;1.90;99.90;;;;;;5092743;28;20172;-79
2022/11/14 03:08:02;;;;;;;28.60;23.03;;;2.00;99.90;;;;;;5095730;28;20180;-79
2022/11/14 03:10:28;;;;;;;31.97;21.53;;;2.00;99.90;;;;;;5097742;28;20203;-81
2022/11/14 03:12:55;;;;;;;39.13;21.13;;;2.00;99.90;;;;;;5100704;28;20179;-80
2022/11/14 03:15:21;;;;;;;40.00;21.53;;;2.10;99.90;;;;;;5097098;28;20593;-78
2022/11/14 03:17:47;;;;;;;75.13;22.07;;;2.10;99.90;;;;;;5096178;28;20688;-78
2022/11/14 03:20:13;;;;;;;74.30;22.30;;;2.10;99.90;;;;;;5096798;28;20171;-78
2022/11/14 03:22:39;;;;;;;88.23;21.67;;;2.20;99.90;;;;;;5099016;28;20233;-76
2022/11/14 03:25:11;;;;;;;86.40;21.57;;;2.20;99.90;;;;;;5095698;28;20186;-78
2022/11/14 03:27:36;;;;;;;76.27;20.50;;;2.20;99.90;;;;;;5097689;28;20188;-78
2022/11/14 03:30:03;;;;;;;68.10;23.63;;;2.30;99.90;;;;;;5106234;28;20263;-78
2022/11/14 03:32:29;;;;;;;121.37;26.13;;;2.30;99.90;;;;;;5098679;28;20588;-79
2022/11/14 03:34:54;;;;;;;88.77;26.70;;;2.30;99.90;;;;;;5097575;28;20187;-79
2022/11/14 03:37:20;;;;;;;79.73;24.73;;;2.30;99.90;;;;;;5096501;28;20199;-79
2022/11/14 03:39:46;;;;;;;67.47;25.93;;;2.40;99.90;;;;;;5098974;28;20171;-79
2022/11/14 03:42:12;;;;;;;81.47;22.63;;;2.40;99.90;;;;;;5097900;28;20214;-79
2022/11/14 03:44:38;;;;;;;82.20;21.30;;;2.40;99.90;;;;;;5097095;28;20555;-79
2022/11/14 03:47:04;;;;;;;54.60;22.90;;;2.40;99.90;;;;;;5096317;28;20180;-78
2022/11/14 03:49:30;;;;;;;82.30;21.77;;;2.40;99.90;;;;;;5097156;28;20273;-78
2022/11/14 03:51:55;;;;;;;32.17;21.37;;;2.30;99.90;;;;;;5094761;28;20280;-78
2022/11/14 03:54:21;;;;;;;75.93;21.57;;;2.20;99.90;;;;;;5080098;28;20201;-78
2022/11/14 03:56:47;;;;;;;46.90;19.43;;;2.10;99.90;;;;;;5080184;28;20210;-79
2022/11/14 03:59:13;;;;;;;87.33;18.87;;;2.10;99.90;;;;;;5088625;28;20213;-77
2022/11/14 04:01:38;;;;;;;63.57;18.57;;;2.10;99.90;;;;;;5095032;28;20206;-79
2022/11/14 04:04:04;;;;;;;57.03;19.33;;;2.10;99.90;;;;;;5095395;28;20183;-79
2022/11/14 04:06:30;;;;;;;29.67;18.43;;;2.20;99.90;;;;;;5094197;28;20181;-79
2022/11/14 04:08:56;;;;;;;35.50;17.27;;;2.10;99.90;;;;;;5095089;28;20176;-79
2022/11/14 04:11:22;;;;;;;37.67;19.50;;;2.00;99.90;;;;;;5096632;28;20225;-78
2022/11/14 04:13:48;;;;;;;56.47;19.47;;;2.00;99.90;;;;;;5097356;28;20181;-79
2022/11/14 04:16:14;;;;;;;43.97;20.00;;;1.90;99.90;;;;;;5095523;28;20181;-79
2022/11/14 04:18:40;;;;;;;50.67;19.43;;;1.90;99.90;;;;;;5094204;28;20204;-78
2022/11/14 04:21:06;;;;;;;35.57;19.87;;;1.90;99.90;;;;;;5097239;28;20333;-79
2022/11/14 04:23:31;;;;;;;46.50;24.23;;;1.90;99.90;;;;;;5094155;28;20787;-79
2022/11/14 04:25:57;;;;;;;37.47;27.77;;;1.90;99.90;;;;;;5095629;28;20282;-77
2022/11/14 04:28:24;;;;;;;50.77;27.03;;;1.80;99.90;;;;;;5093565;28;20288;-77
2022/11/14 04:30:50;;;;;;;36.87;29.73;;;1.80;99.90;;;;;;5099963;28;20201;-76
2022/11/14 04:33:15;;;;;;;33.30;24.63;;;1.80;99.90;;;;;;5093553;28;20184;-77
2022/11/14 04:35:41;;;;;;;32.43;21.17;;;1.80;99.90;;;;;;5094941;28;20183;-76
2022/11/14 04:38:09;;;;;;;26.97;21.00;;;1.80;99.90;;;;;;5096400;28;20202;-77
2022/11/14 04:40:34;;;;;;;27.77;21.00;;;1.70;99.90;;;;;;5093756;28;20708;-77
2022/11/14 04:43:00;;;;;;;29.90;20.87;;;1.60;99.90;;;;;;5093897;28;20183;-77
2022/11/14 04:45:27;;;;;;;22.43;19.37;;;1.60;99.90;;;;;;5092683;28;20259;-77
2022/11/14 04:47:53;;;;;;;22.60;20.23;;;1.50;99.90;;;;;;5096091;28;20208;-76
2022/11/14 04:50:19;;;;;;;21.70;19.40;;;1.50;99.90;;;;;;5095650;28;20668;-76
2022/11/14 04:52:45;;;;;;;25.23;20.03;;;1.50;99.90;;;;;;5091690;28;20216;-78
2022/11/14 04:55:10;;;;;;;22.13;19.60;;;1.50;99.90;;;;;;5095021;28;20233;-76
2022/11/14 04:57:36;;;;;;;26.10;21.40;;;1.50;99.90;;;;;;5089901;28;20733;-77
2022/11/14 05:00:04;;;;;;;24.67;19.57;;;1.50;99.90;;;;;;5094333;28;20234;-76
2022/11/14 05:02:31;;;;;;;23.73;20.20;;;1.50;99.90;;;;;;5113380;28;20180;-74
2022/11/14 05:04:57;;;;;;;25.20;19.50;;;1.50;99.90;;;;;;5110838;28;20185;-77
2022/11/14 05:07:22;;;;;;;29.10;19.73;;;1.50;99.90;;;;;;5093461;28;20441;-77
2022/11/14 05:09:48;;;;;;;81.73;22.43;;;1.50;99.90;;;;;;5092641;28;20568;-77
2022/11/14 05:12:14;;;;;;;52.20;21.47;;;1.50;99.90;;;;;;5094558;28;20196;-76
2022/11/14 05:14:40;;;;;;;45.47;25.20;;;1.50;99.90;;;;;;5096441;28;20179;-76
2022/11/14 05:17:05;;;;;;;62.73;24.50;;;1.50;99.90;;;;;;5095108;28;20186;-77
2022/11/14 05:19:31;;;;;;;41.13;24.07;;;1.50;99.90;;;;;;5092660;28;20219;-77
2022/11/14 05:21:57;;;;;;;43.20;30.40;;;1.50;99.90;;;;;;5093559;28;20195;-77
2022/11/14 05:24:23;;;;;;;63.53;32.30;;;1.50;99.90;;;;;;5092995;28;20182;-77
2022/11/14 05:26:48;;;;;;;71.03;31.33;;;1.50;99.90;;;;;;5091988;28;20210;-77
2022/11/14 05:29:14;;;;;;;61.43;28.83;;;1.50;99.90;;;;;;5091409;28;20191;-77
2022/11/14 05:31:40;;;;;;;84.60;30.57;;;1.50;99.90;;;;;;5097591;28;20202;-77
2022/11/14 05:34:06;;;;;;;86.63;23.40;;;1.60;99.90;;;;;;5092091;28;20187;-76
2022/11/14 05:36:31;;;;;;;88.83;29.73;;;1.60;99.90;;;;;;5093081;28;20685;-77
2022/11/14 05:38:57;;;;;;;100.40;29.00;;;1.50;99.90;;;;;;5092281;28;20261;-77
2022/11/14 05:41:23;;;;;;;85.50;22.87;;;1.50;99.90;;;;;;5075023;22;20246;-73
2022/11/14 05:43:48;;;;;;;60.57;19.43;;;1.50;99.90;;;;;;4991624;28;20668;-72
2022/11/14 05:46:15;;;;;;;63.27;26.40;;;1.40;99.90;;;;;;4990002;28;20241;-72
2022/11/14 05:48:41;;;;;;;112.73;23.53;;;1.40;99.90;;;;;;4990508;28;20218;-73
2022/11/14 05:51:10;;;;;;;54.90;23.23;;;1.40;99.90;;;;;;4991193;28;20213;-73
2022/11/14 05:53:36;;;;;;;91.47;26.07;;;1.40;99.90;;;;;;4990790;28;20188;-73
2022/11/14 05:56:08;;;;;;;105.47;24.47;;;1.40;99.90;;;;;;4991050;28;20649;-73
2022/11/14 05:58:35;;;;;;;73.57;31.33;;;1.40;99.90;;;;;;4999861;28;20243;-72
2022/11/14 06:01:14;;;;;;;81.03;29.30;;;1.40;99.90;;;;;;5006716;28;20687;-72
2022/11/14 06:03:43;;;;;;;74.07;24.03;;;1.40;99.90;;;;;;4994035;28;20776;-73
2022/11/14 06:06:11;;;;;;;67.60;22.53;;;1.40;99.90;;;;;;4993082;28;20193;-73
2022/11/14 06:08:37;;;;;;;37.13;24.37;;;1.40;99.90;;;;;;4991703;28;20240;-73
2022/11/14 06:11:06;;;;;;;32.03;21.20;;;1.40;99.90;;;;;;4991453;28;20206;-72
2022/11/14 06:13:32;;;;;;;34.33;20.30;;;1.40;99.90;;;;;;4991098;28;20680;-73
2022/11/14 06:16:00;;;;;;;23.70;20.77;;;1.40;99.90;;;;;;4990449;28;20190;-73
2022/11/14 06:18:27;;;;;;;26.80;19.67;;;1.40;99.90;;;;;;4989522;28;20217;-73
2022/11/14 06:20:53;;;;;;;22.47;19.33;;;1.40;99.90;;;;;;4989349;28;20283;-73
2022/11/14 06:23:18;;;;;;;28.87;19.13;;;1.40;99.90;;;;;;4989618;28;20980;-72
2022/11/14 06:25:44;;;;;;;28.47;18.87;;;1.40;99.90;;;;;;4991354;28;20215;-73
2022/11/14 06:28:10;;;;;;;26.13;20.60;;;1.40;99.90;;;;;;4991270;28;20189;-73
2022/11/14 06:30:37;;;;;;;25.20;21.93;;;1.50;99.90;;;;;;4990968;28;20678;-71
2022/11/14 06:33:02;;;;;;;27.67;24.13;;;1.40;99.90;;;;;;4988785;28;20183;-72
2022/11/14 06:35:28;;;;;;;26.07;23.27;;;1.50;99.90;;;;;;4990028;28;20275;-72
2022/11/14 06:37:54;;;;;;;29.77;26.57;;;1.50;99.90;;;;;;4987674;28;20238;-71
2022/11/14 06:40:20;;;;;;;26.97;24.13;;;1.50;99.90;;;;;;4987768;28;20182;-71
2022/11/14 06:42:46;;;;;;;29.37;22.70;;;1.60;99.90;;;;;;4991924;28;20215;-70
2022/11/14 06:45:12;;;;;;;27.03;24.23;;;1.60;99.90;;;;;;4991879;28;20197;-70
2022/11/14 06:47:38;;;;;;;25.23;22.67;;;1.60;99.90;;;;;;4991393;28;20243;-69
2022/11/14 06:50:04;;;;;;;25.50;22.93;;;1.60;99.90;;;;;;4992018;28;20190;-71
2022/11/14 06:52:30;;;;;;;26.83;24.20;;;1.60;99.90;;;;;;4991921;28;20203;-70
2022/11/14 06:54:56;;;;;;;29.17;26.13;;;1.60;99.90;;;;;;4991541;28;20275;-69
2022/11/14 06:57:22;;;;;;;26.67;24.07;;;1.60;99.90;;;;;;4991806;28;20257;-70
2022/11/14 06:59:48;;;;;;;32.37;29.37;;;1.60;99.90;;;;;;4991723;28;20172;-70
2022/11/14 07:02:14;;;;;;;29.60;26.80;;;1.70;99.90;;;;;;4991526;28;20211;-70
2022/11/14 07:04:39;;;;;;;27.17;24.27;;;1.60;99.90;;;;;;4991617;28;20640;-71
2022/11/14 07:07:05;;;;;;;25.30;22.60;;;1.70;99.90;;;;;;4991113;28;20230;-70
2022/11/14 07:09:31;;;;;;;25.40;23.00;;;1.70;99.90;;;;;;4991315;28;20230;-70
2022/11/14 07:11:56;;;;;;;26.07;23.60;;;1.80;99.90;;;;;;4991865;28;20298;-70
2022/11/14 07:14:22;;;;;;;24.77;22.30;;;1.90;99.90;;;;;;4991599;28;20275;-70
2022/11/14 07:16:48;;;;;;;19.93;16.83;;;1.90;99.90;;;;;;4991197;28;20718;-71
2022/11/14 07:19:14;;;;;;;23.53;21.07;;;1.90;99.90;;;;;;4991602;28;20271;-70
2022/11/14 07:21:39;;;;;;;25.87;20.37;;;1.90;99.90;;;;;;4991582;28;20218;-70
2022/11/14 07:24:06;;;;;;;31.00;28.10;;;2.00;99.90;;;;;;4991167;28;20227;-70
2022/11/14 07:26:31;;;;;;;27.93;25.23;;;2.10;99.90;;;;;;4990382;28;20187;-70
2022/11/14 07:28:57;;;;;;;28.20;25.10;;;2.10;99.90;;;;;;4990973;28;20187;-70
2022/11/14 07:31:23;;;;;;;36.37;32.87;;;2.20;99.90;;;;;;4991025;28;20202;-69
2022/11/14 07:33:49;;;;;;;25.70;23.00;;;2.20;99.90;;;;;;4991349;28;20194;-71
2022/11/14 07:36:15;;;;;;;21.57;19.27;;;2.20;99.90;;;;;;4991215;28;20272;-71
2022/11/14 07:38:42;;;;;;;26.03;23.70;;;2.30;99.90;;;;;;4990832;28;20214;-69
2022/11/14 07:41:17;;;;;;;29.93;26.77;;;2.40;99.90;;;;;;4991629;28;20299;-71
2022/11/14 07:43:43;;;;;;;30.33;27.53;;;2.50;99.90;;;;;;5010825;28;20172;-70
2022/11/14 07:46:14;;;;;;;31.67;28.77;;;2.60;99.90;;;;;;4992772;28;20184;-71
2022/11/14 07:48:40;;;;;;;30.40;27.40;;;2.70;99.90;;;;;;4990957;28;20280;-71
2022/11/14 07:51:09;;;;;;;27.00;24.10;;;2.80;99.90;;;;;;4991123;28;20692;-71
2022/11/14 07:53:35;;;;;;;28.70;25.20;;;3.00;99.90;;;;;;4990908;28;20189;-71
2022/11/14 07:56:04;;;;;;;27.70;24.87;;;3.20;99.90;;;;;;4989773;28;20738;-71
2022/11/14 07:58:30;;;;;;;33.17;27.77;;;3.40;99.90;;;;;;4989444;28;20218;-71
2022/11/14 08:00:59;;;;;;;25.33;22.63;;;3.50;99.90;;;;;;4989481;28;20288;-71
2022/11/14 08:03:25;;;;;;;33.00;29.43;;;3.60;99.90;;;;;;4991334;28;20215;-71
2022/11/14 08:05:51;;;;;;;25.00;18.60;;;3.70;99.90;;;;;;4990098;28;20572;-71
2022/11/14 08:08:17;;;;;;;20.50;17.13;;;3.70;99.90;;;;;;4990465;28;20192;-71
2022/11/14 08:10:42;;;;;;;23.50;18.73;;;3.60;99.90;;;;;;4989236;28;20226;-71
2022/11/14 08:13:10;;;;;;;24.27;18.50;;;3.80;99.90;;;;;;4990604;28;20248;-71
2022/11/14 08:15:36;;;;;;;21.43;17.90;;;3.80;99.90;;;;;;4990599;28;20547;-71
2022/11/14 08:18:02;;;;;;;22.90;17.90;;;3.90;99.90;;;;;;4989051;28;20208;-71
2022/11/14 08:20:27;;;;;;;25.37;19.17;;;4.00;99.90;;;;;;4990662;28;20241;-72
2022/11/14 08:23:00;;;;;;;21.17;17.57;;;4.20;99.90;;;;;;4990551;28;20210;-71
2022/11/14 08:25:26;;;;;;;21.23;17.03;;;4.40;99.90;;;;;;4990270;28;20208;-71
2022/11/14 08:27:52;;;;;;;24.20;17.93;;;4.60;99.90;;;;;;4990204;28;20210;-72
2022/11/14 08:30:18;;;;;;;25.33;20.27;;;4.80;99.90;;;;;;4989632;28;20219;-71
2022/11/14 08:32:44;;;;;;;39.23;35.73;;;5.10;99.90;;;;;;4990348;28;20227;-71
2022/11/14 08:35:10;;;;;;;29.37;21.43;;;5.50;99.90;;;;;;4990522;28;20185;-71
2022/11/14 08:37:35;;;;;;;22.27;17.67;;;5.70;99.90;;;;;;4989834;28;20317;-72
2022/11/14 08:40:01;;;;;;;22.97;18.70;;;5.80;99.90;;;;;;4990123;28;20180;-71
2022/11/14 08:42:27;;;;;;;27.30;24.53;;;5.90;99.90;;;;;;4990684;28;20625;-72
2022/11/14 08:44:53;;;;;;;22.17;19.20;;;5.90;99.90;;;;;;4990849;28;20244;-72
2022/11/14 08:47:19;;;;;;;23.50;21.17;;;6.00;99.90;;;;;;4989097;28;20329;-71
2022/11/14 08:49:45;;;;;;;30.10;27.33;;;6.00;99.90;;;;;;5020767;28;20680;-72
2022/11/14 08:52:11;;;;;;;22.27;18.03;;;6.20;99.90;;;;;;5063914;28;20878;-72
2022/11/14 08:54:36;;;;;;;28.30;25.57;;;6.30;99.90;;;;;;4987820;28;20185;-72
2022/11/14 08:57:03;;;;;;;23.63;21.20;;;6.30;99.90;;;;;;4989284;28;20223;-71
2022/11/14 08:59:30;;;;;;;21.90;18.87;;;6.30;99.90;;;;;;4989268;28;20227;-71
2022/11/14 09:01:56;;;;;;;23.30;18.07;;;6.30;99.90;;;;;;4989974;28;20208;-72
2022/11/14 09:04:22;;;;;;;19.93;16.27;;;6.20;99.90;;;;;;4989379;28;20786;-71
2022/11/14 09:06:47;;;;;;;21.77;16.77;;;6.10;99.90;;;;;;4989698;28;20185;-71
2022/11/14 09:09:13;;;;;;;21.53;16.60;;;6.10;99.90;;;;;;4989839;28;20188;-72
2022/11/14 09:11:39;;;;;;;20.53;17.93;;;6.10;99.90;;;;;;4990018;28;20211;-71
2022/11/14 09:14:06;;;;;;;28.20;18.93;;;6.00;99.90;;;;;;4988776;28;20190;-71
2022/11/14 09:16:32;;;;;;;28.63;20.97;;;5.90;99.90;;;;;;4989975;28;20212;-71
2022/11/14 09:18:58;;;;;;;22.83;18.33;;;5.80;99.90;;;;;;4988330;28;20222;-71
2022/11/14 09:21:24;;;;;;;22.63;19.77;;;5.60;99.90;;;;;;4989686;28;20204;-71
2022/11/14 09:23:50;;;;;;;24.00;19.23;;;5.50;99.90;;;;;;4989722;28;20194;-70
2022/11/14 09:26:17;;;;;;;23.33;18.70;;;5.40;99.90;;;;;;4999273;28;20198;-70
2022/11/14 09:28:44;;;;;;;27.47;19.03;;;5.40;99.90;;;;;;5001240;28;20196;-71
2022/11/14 09:31:11;;;;;;;26.23;23.63;;;5.40;99.90;;;;;;4990209;28;20216;-72
2022/11/14 09:33:37;;;;;;;30.27;24.47;;;5.30;99.90;;;;;;4988625;28;20192;-73
2022/11/14 09:36:06;;;;;;;27.57;22.60;;;5.30;99.90;;;;;;4978726;28;20201;-73
2022/11/14 09:38:32;;;;;;;27.17;23.93;;;5.30;99.90;;;;;;4984660;28;20212;-74
2022/11/14 09:41:13;;;;;;;29.13;25.57;;;5.30;99.90;;;;;;4973677;28;20232;-74
2022/11/14 09:44:01;;;;;;;77.33;71.20;;;5.30;99.90;;;;;;4969168;28;20193;-74
2022/11/14 09:46:32;;;;;;;57.43;53.13;;;5.30;99.90;;;;;;4969381;28;20237;-74
2022/11/14 09:48:58;;;;;;;89.53;83.73;;;5.30;99.90;;;;;;4973010;28;20561;-75
2022/11/14 09:51:35;;;;;;;180.73;168.67;;;5.40;99.90;;;;;;5030581;28;20822;-75
2022/11/14 09:54:12;;;;;;;140.37;131.03;;;5.40;99.90;;;;;;4997799;28;20599;-75
2022/11/14 09:56:38;;;;;;;40.07;36.07;;;5.50;99.90;;;;;;4989672;28;20275;-75
2022/11/14 09:59:09;;;;;;;48.70;44.57;;;5.50;99.90;;;;;;4988417;28;20352;-76
2022/11/14 10:01:43;;;;;;;88.17;81.57;;;5.40;99.90;;;;;;4988296;28;20205;-76
2022/11/14 10:05:05;;;;;;;61.03;56.13;;;5.50;99.90;;;;;;4988626;28;20297;-76
2022/11/14 10:08:08;;;;;;;113.47;106.57;;;5.60;99.90;;;;;;5029357;28;20187;-76
2022/11/14 10:10:53;;;;;;;45.63;41.93;;;5.80;99.90;;;;;;5029446;28;20179;-75
2022/11/14 10:13:31;;;;;;;67.90;62.90;;;5.90;99.90;;;;;;4991940;28;20197;-76
2022/11/14 10:16:09;;;;;;;52.50;48.30;;;6.00;99.90;;;;;;4989140;28;20173;-77
2022/11/14 10:19:17;;;;;;;41.83;38.03;;;6.20;99.90;;;;;;4988198;28;20597;-76
2022/11/14 10:22:01;;;;;;;36.27;32.93;;;6.20;99.90;;;;;;4988419;28;20196;-76
2022/11/14 10:24:50;;;;;;;38.57;35.13;;;6.30;99.90;;;;;;4989205;28;20191;-76
2022/11/14 10:27:28;;;;;;;25.20;18.43;;;6.30;99.90;;;;;;4989131;28;20222;-75
2022/11/14 10:30:02;;;;;;;22.47;18.50;;;6.40;99.90;;;;;;4988372;28;20215;-76
2022/11/14 10:32:58;;;;;;;29.13;22.53;;;6.50;99.90;;;;;;4989080;28;20207;-76
2022/11/14 10:35:30;;;;;;;31.37;28.30;;;6.60;99.90;;;;;;4989120;28;20249;-76
2022/11/14 10:38:06;;;;;;;30.73;26.13;;;6.70;99.90;;;;;;4987213;28;20295;-76
2022/11/14 10:41:00;;;;;;;34.53;31.17;;;6.90;99.90;;;;;;4987346;28;20249;-76
2022/11/14 10:43:45;;;;;;;24.33;21.77;;;7.10;99.90;;;;;;4989896;28;20280;-76
2022/11/14 10:46:32;;;;;;;22.63;20.23;;;7.30;99.90;;;;;;4989171;28;20183;-76
2022/11/14 10:49:16;;;;;;;21.33;16.43;;;7.50;99.90;;;;;;4987551;28;20318;-76
2022/11/14 10:51:46;;;;;;;22.33;19.63;;;7.50;99.90;;;;;;4988111;28;20337;-75
2022/11/14 10:54:23;;;;;;;21.73;19.40;;;7.60;99.90;;;;;;4989357;28;20180;-76
2022/11/14 10:56:51;;;;;;;21.00;18.00;;;7.70;99.90;;;;;;4987192;28;20568;-75
2022/11/14 10:59:17;;;;;;;20.63;15.73;;;7.80;99.90;;;;;;4988359;28;20204;-75
2022/11/14 11:01:55;;;;;;;19.80;15.40;;;8.00;99.90;;;;;;4989064;28;20238;-75
2022/11/14 11:04:31;;;;;;;19.40;13.97;;;8.10;99.90;;;;;;4989355;28;20184;-76
2022/11/14 11:12:52;;;;;;;37.73;34.67;;;8.10;99.90;;;;;;4993036;28;20311;-76
2022/11/14 11:15:29;;;;;;;21.10;18.97;;;8.10;99.90;;;;;;4988351;28;20184;-75
2022/11/14 11:17:57;;;;;;;40.80;37.70;;;8.10;99.90;;;;;;4987888;28;20219;-75
2022/11/14 11:20:36;;;;;;;45.10;41.70;;;8.10;99.90;;;;;;4990015;28;20196;-76
2022/11/14 11:23:09;;;;;;;37.97;35.17;;;8.10;99.90;;;;;;4987680;28;20211;-76
2022/11/14 11:25:37;;;;;;;36.33;32.93;;;8.20;99.90;;;;;;4987580;28;20562;-74
2022/11/14 11:28:14;;;;;;;38.97;35.93;;;8.20;99.90;;;;;;4991396;28;20811;-76
2022/11/14 11:30:54;;;;;;;29.90;27.47;;;8.20;99.90;;;;;;4991717;28;20195;-74
2022/11/14 11:33:19;;;;;;;33.60;31.00;;;8.20;99.90;;;;;;4992754;28;20542;-75
2022/11/14 11:35:48;;;;;;;19.80;18.03;;;8.30;99.90;;;;;;4991217;28;20181;-76
2022/11/14 11:38:15;;;;;;;18.67;16.77;;;8.50;99.90;;;;;;4991494;28;20244;-75
2022/11/14 11:40:44;;;;;;;22.17;19.93;;;9.30;99.90;;;;;;4990978;28;20675;-75
2022/11/14 11:43:22;;;;;;;26.37;23.97;;;11.00;99.90;;;;;;5099338;22;20235;-75
2022/11/14 11:45:49;;;;;;;26.97;24.60;;;12.20;99.90;;;;;;5093355;28;20181;-76
2022/11/14 11:48:22;;;;;;;14.97;13.40;;;12.00;99.90;;;;;;5092535;28;20177;-76
2022/11/14 11:50:48;;;;;;;19.80;18.20;;;11.90;99.90;;;;;;5094884;28;20533;-76
2022/11/14 11:53:23;;;;;;;22.93;21.33;;;11.70;99.90;;;;;;5093760;28;20224;-75
2022/11/14 11:55:58;;;;;;;16.47;14.93;;;11.70;99.90;;;;;;5093799;28;20190;-75
2022/11/14 11:58:44;;;;;;;13.53;12.33;;;11.70;99.90;;;;;;5093486;28;20254;-74
2022/11/14 12:01:11;;;;;;;20.60;19.07;;;12.00;99.90;;;;;;5093671;28;20672;-75
2022/11/14 12:03:37;;;;;;;46.07;33.20;;;12.10;99.90;;;;;;5107886;28;20176;-75
2022/11/14 12:06:23;;;;;;;31.37;28.60;;;12.10;99.90;;;;;;5114179;28;20179;-75
2022/11/14 12:09:08;;;;;;;22.83;21.13;;;12.00;99.90;;;;;;5113391;28;20644;-75
2022/11/14 12:11:37;;;;;;;26.13;23.87;;;11.90;99.90;;;;;;5114140;28;20208;-74
2022/11/14 12:14:28;;;;;;;12.70;11.70;;;11.90;99.90;;;;;;5110025;28;20219;-75
2022/11/14 12:17:09;;;;;;;14.67;13.87;;;11.90;99.90;;;;;;5074695;28;20212;-75
2022/11/14 12:19:44;;;;;;;18.43;17.37;;;12.00;99.90;;;;;;5071603;28;20243;-74
2022/11/14 12:22:24;;;;;;;13.80;13.13;;;12.10;99.90;;;;;;5071363;28;20200;-75
2022/11/14 12:25:11;;;;;;;20.53;19.60;;;12.20;99.90;;;;;;5071695;28;20177;-74
2022/11/14 12:28:01;;;;;;;37.87;36.03;;;12.20;99.90;;;;;;5071229;28;20207;-75
2022/11/14 12:30:28;;;;;;;9.17;8.77;;;12.20;99.90;;;;;;5071867;28;20188;-74
2022/11/14 12:33:00;;;;;;;5.13;4.73;;;12.30;99.90;;;;;;5073136;28;20206;-74
2022/11/14 12:35:29;;;;;;;9.47;8.87;;;12.40;99.90;;;;;;5073167;28;20181;-74
2022/11/14 12:37:58;;;;;;;12.00;11.37;;;12.50;99.90;;;;;;5071911;28;20204;-74
2022/11/14 12:40:33;;;;;;;15.40;14.70;;;12.50;99.90;;;;;;5071876;28;20235;-74
2022/11/14 12:43:00;;;;;;;12.93;12.30;;;12.50;99.90;;;;;;5071671;28;20208;-74
2022/11/14 12:45:35;;;;;;;11.47;10.97;;;12.50;99.90;;;;;;5072859;28;20182;-74
2022/11/14 12:48:25;;;;;;;11.73;11.23;;;12.50;99.90;;;;;;5071255;28;20565;-75
2022/11/14 12:50:53;;;;;;;11.20;10.57;;;12.50;99.90;;;;;;5072742;28;20262;-74